KSME/SME METAR and TAF weather

Enter ICAO airport designator
Station Type Date Time Source
KSME METAR 2020/04/07 16:55 UTC NOAA

KSME 071655Z AUTO 24010G15KT 10SM SCT044 SCT050 23/11 A2998 RMK AO2 TSNO


Station Type Date Time Source
KSME Decoded METAR 2020/04/07 16:55 UTC NOAA

Somerset, Somerset-Pulaski County - J.T. Wilson Field Airport, KY, United States (KSME) 37-03-15N 084-36-54W
Apr 07, 2020 - 12:55 PM EDT / 2020.04.07 1655 UTC
Wind: from the WSW (240 degrees) at 12 MPH (10 KT) gusting to 17 MPH (15 KT):0
Visibility: 10 mile(s):0
Sky conditions: partly cloudy
Temperature: 73 F (23 C)
Dew Point: 51 F (11 C)
Relative Humidity: 46%
Pressure (altimeter): 29.98 in. Hg (1015 hPa)
ob: KSME 071655Z AUTO 24010G15KT 10SM SCT044 SCT050 23/11 A2998 RMK AO2 TSNO
cycle: 17

Station Type Date Time Source
KSME TAF 2020/04/07 12:22 UTC NOAA

TAF KSME 071120Z 0712/0812 00000KT P6SM SCT050 BKN250
FM071700 24011G20KT P6SM BKN050
FM080200 24006KT P6SM OVC050
FM081000 24006KT P6SM OVC015
FM081100 VRB05KT P6SM -SHRA BKN015

Example: see airport list